sensor_id;sensor_type;location;lat;lon;timestamp;pressure;altitude;pressure_sealevel;temperature;humidity
75640;BME280;64233;51.486;6.332;2023-04-25T00:00:37;100712.84;;;4.39;100.00
75640;BME280;64233;51.486;6.332;2023-04-25T00:03:03;100712.81;;;4.45;100.00
75640;BME280;64233;51.486;6.332;2023-04-25T00:05:30;100718.31;;;4.51;100.00
75640;BME280;64233;51.486;6.332;2023-04-25T00:07:57;100724.25;;;4.46;100.00
75640;BME280;64233;51.486;6.332;2023-04-25T00:10:22;100722.00;;;4.50;100.00
75640;BME280;64233;51.486;6.332;2023-04-25T00:12:48;100716.25;;;4.53;100.00
75640;BME280;64233;51.486;6.332;2023-04-25T00:15:13;100721.59;;;4.53;100.00
75640;BME280;64233;51.486;6.332;2023-04-25T00:17:39;100722.22;;;4.48;100.00
75640;BME280;64233;51.486;6.332;2023-04-25T00:20:05;100715.91;;;4.42;100.00
75640;BME280;64233;51.486;6.332;2023-04-25T00:22:32;100724.25;;;4.46;100.00
75640;BME280;64233;51.486;6.332;2023-04-25T00:24:59;100725.34;;;4.38;100.00
75640;BME280;64233;51.486;6.332;2023-04-25T00:27:26;100725.50;;;4.43;100.00
75640;BME280;64233;51.486;6.332;2023-04-25T00:29:51;100730.81;;;4.43;100.00
75640;BME280;64233;51.486;6.332;2023-04-25T00:32:17;100731.22;;;4.47;100.00
75640;BME280;64233;51.486;6.332;2023-04-25T00:34:42;100732.25;;;4.46;100.00
75640;BME280;64233;51.486;6.332;2023-04-25T00:37:07;100738.56;;;4.52;100.00
75640;BME280;64233;51.486;6.332;2023-04-25T00:39:32;100737.91;;;4.56;100.00
75640;BME280;64233;51.486;6.332;2023-04-25T00:41:58;100734.22;;;4.57;100.00
75640;BME280;64233;51.486;6.332;2023-04-25T00:44:24;100735.22;;;4.63;100.00
75640;BME280;64233;51.486;6.332;2023-04-25T00:46:50;100740.53;;;4.63;100.00
75640;BME280;64233;51.486;6.332;2023-04-25T00:49:16;100738.28;;;4.67;100.00
75640;BME280;64233;51.486;6.332;2023-04-25T00:51:42;100738.66;;;4.70;100.00
75640;BME280;64233;51.486;6.332;2023-04-25T00:54:11;100726.56;;;4.74;100.00
75640;BME280;64233;51.486;6.332;2023-04-25T00:56:37;100730.66;;;4.77;100.00
75640;BME280;64233;51.486;6.332;2023-04-25T00:59:02;100738.22;;;4.80;100.00
75640;BME280;64233;51.486;6.332;2023-04-25T01:01:28;100734.53;;;4.81;100.00
75640;BME280;64233;51.486;6.332;2023-04-25T01:03:54;100743.53;;;4.80;100.00
75640;BME280;64233;51.486;6.332;2023-04-25T01:06:20;100733.69;;;4.80;100.00
75640;BME280;64233;51.486;6.332;2023-04-25T01:08:45;100731.66;;;4.82;100.00
75640;BME280;64233;51.486;6.332;2023-04-25T01:11:10;100739.41;;;4.84;100.00
75640;BME280;64233;51.486;6.332;2023-04-25T01:13:35;100736.53;;;4.86;100.00
75640;BME280;64233;51.486;6.332;2023-04-25T01:16:02;100732.47;;;4.83;100.00
75640;BME280;64233;51.486;6.332;2023-04-25T01:18:27;100726.91;;;4.85;100.00
75640;BME280;64233;51.486;6.332;2023-04-25T01:20:53;100727.34;;;4.81;100.00
75640;BME280;64233;51.486;6.332;2023-04-25T01:23:21;100736.97;;;4.82;100.00
75640;BME280;64233;51.486;6.332;2023-04-25T01:25:47;100742.28;;;4.82;100.00
75640;BME280;64233;51.486;6.332;2023-04-25T01:28:13;100739.22;;;4.79;100.00
75640;BME280;64233;51.486;6.332;2023-04-25T01:30:38;100743.53;;;4.80;100.00
75640;BME280;64233;51.486;6.332;2023-04-25T01:33:04;100753.16;;;4.81;100.00
75640;BME280;64233;51.486;6.332;2023-04-25T01:35:31;100745.16;;;4.81;100.00
75640;BME280;64233;51.486;6.332;2023-04-25T01:37:57;100756.81;;;4.80;100.00
75640;BME280;64233;51.486;6.332;2023-04-25T01:40:23;100748.06;;;4.73;100.00
75640;BME280;64233;51.486;6.332;2023-04-25T01:42:49;100754.19;;;4.73;100.00
75640;BME280;64233;51.486;6.332;2023-04-25T01:45:15;100749.31;;;4.70;100.00
75640;BME280;64233;51.486;6.332;2023-04-25T01:47:41;100748.09;;;4.66;100.00
75640;BME280;64233;51.486;6.332;2023-04-25T01:50:10;100752.19;;;4.69;100.00
75640;BME280;64233;51.486;6.332;2023-04-25T01:52:36;100759.16;;;4.63;100.00
75640;BME280;64233;51.486;6.332;2023-04-25T01:55:02;100764.47;;;4.63;100.00
75640;BME280;64233;51.486;6.332;2023-04-25T01:57:27;100761.03;;;4.56;100.00
75640;BME280;64233;51.486;6.332;2023-04-25T01:59:59;100768.81;;;4.51;100.00
75640;BME280;64233;51.486;6.332;2023-04-25T02:02:25;100768.81;;;4.51;100.00
75640;BME280;64233;51.486;6.332;2023-04-25T02:04:51;100771.31;;;4.45;100.00
75640;BME280;64233;51.486;6.332;2023-04-25T02:07:16;100776.63;;;4.45;100.00
75640;BME280;64233;51.486;6.332;2023-04-25T02:09:41;100781.09;;;4.45;100.00
75640;BME280;64233;51.486;6.332;2023-04-25T02:12:08;100773.16;;;4.38;100.00
75640;BME280;64233;51.486;6.332;2023-04-25T02:14:34;100775.78;;;4.45;100.00
75640;BME280;64233;51.486;6.332;2023-04-25T02:16:59;100783.97;;;4.43;100.00
75640;BME280;64233;51.486;6.332;2023-04-25T02:19:24;100776.63;;;4.45;100.00
75640;BME280;64233;51.486;6.332;2023-04-25T02:21:50;100774.56;;;4.47;100.00
75640;BME280;64233;51.486;6.332;2023-04-25T02:24:15;100780.88;;;4.46;100.00
75640;BME280;64233;51.486;6.332;2023-04-25T02:26:40;100777.22;;;4.41;100.00
75640;BME280;64233;51.486;6.332;2023-04-25T02:29:06;100776.44;;;4.40;100.00
75640;BME280;64233;51.486;6.332;2023-04-25T02:31:31;100785.03;;;4.42;100.00
75640;BME280;64233;51.486;6.332;2023-04-25T02:33:56;100782.75;;;4.39;100.00
75640;BME280;64233;51.486;6.332;2023-04-25T02:36:21;100781.34;;;4.37;100.00
75640;BME280;64233;51.486;6.332;2023-04-25T02:38:47;100783.59;;;4.33;100.00
75640;BME280;64233;51.486;6.332;2023-04-25T02:41:12;100788.50;;;4.29;100.00
75640;BME280;64233;51.486;6.332;2023-04-25T02:43:37;100788.34;;;4.24;100.00
75640;BME280;64233;51.486;6.332;2023-04-25T02:46:03;100782.44;;;4.16;100.00
75640;BME280;64233;51.486;6.332;2023-04-25T02:48:28;100791.03;;;4.04;100.00
75640;BME280;64233;51.486;6.332;2023-04-25T02:50:54;100779.78;;;4.02;100.00
75640;BME280;64233;51.486;6.332;2023-04-25T02:53:19;100794.28;;;4.00;100.00
75640;BME280;64233;51.486;6.332;2023-04-25T02:55:44;100790.22;;;3.97;100.00
75640;BME280;64233;51.486;6.332;2023-04-25T02:58:10;100790.84;;;3.99;100.00
75640;BME280;64233;51.486;6.332;2023-04-25T03:00:36;100794.28;;;4.00;100.00
75640;BME280;64233;51.486;6.332;2023-04-25T03:03:01;100787.38;;;3.99;100.00
75640;BME280;64233;51.486;6.332;2023-04-25T03:05:26;100784.28;;;3.95;100.00
75640;BME280;64233;51.486;6.332;2023-04-25T03:07:51;100794.13;;;3.94;100.00
75640;BME280;64233;51.486;6.332;2023-04-25T03:10:17;100795.13;;;3.93;100.00
75640;BME280;64233;51.486;6.332;2023-04-25T03:12:42;100790.84;;;3.92;100.00
75640;BME280;64233;51.486;6.332;2023-04-25T03:15:08;100790.44;;;3.89;100.00
75640;BME280;64233;51.486;6.332;2023-04-25T03:17:33;100789.22;;;3.85;100.00
75640;BME280;64233;51.486;6.332;2023-04-25T03:19:58;100785.56;;;3.86;100.00
75640;BME280;64233;51.486;6.332;2023-04-25T03:22:24;100791.88;;;3.91;100.00
75640;BME280;64233;51.486;6.332;2023-04-25T03:24:49;100794.53;;;3.85;100.00
75640;BME280;64233;51.486;6.332;2023-04-25T03:27:15;100796.75;;;3.81;100.00
75640;BME280;64233;51.486;6.332;2023-04-25T03:29:40;100799.63;;;3.79;100.00
75640;BME280;64233;51.486;6.332;2023-04-25T03:32:05;100796.78;;;3.74;100.00
75640;BME280;64233;51.486;6.332;2023-04-25T03:34:31;100799.03;;;3.71;100.00
75640;BME280;64233;51.486;6.332;2023-04-25T03:36:56;100800.06;;;3.63;100.00
75640;BME280;64233;51.486;6.332;2023-04-25T03:39:21;100803.31;;;3.58;100.00
75640;BME280;64233;51.486;6.332;2023-04-25T03:41:46;100788.81;;;3.48;100.00
75640;BME280;64233;51.486;6.332;2023-04-25T03:44:13;100788.59;;;3.42;100.00
75640;BME280;64233;51.486;6.332;2023-04-25T03:46:38;100801.03;;;3.35;100.00
75640;BME280;64233;51.486;6.332;2023-04-25T03:49:04;100800.22;;;3.28;100.00
75640;BME280;64233;51.486;6.332;2023-04-25T03:51:29;100802.03;;;3.21;100.00
75640;BME280;64233;51.486;6.332;2023-04-25T03:53:56;100806.13;;;3.17;100.00
75640;BME280;64233;51.486;6.332;2023-04-25T03:56:21;100802.84;;;3.08;100.00
75640;BME280;64233;51.486;6.332;2023-04-25T03:58:47;100806.28;;;3.02;100.00
75640;BME280;64233;51.486;6.332;2023-04-25T04:01:12;100810.16;;;2.99;100.00
75640;BME280;64233;51.486;6.332;2023-04-25T04:03:38;100809.31;;;2.99;100.00
75640;BME280;64233;51.486;6.332;2023-04-25T04:06:04;100813.59;;;2.93;100.00
75640;BME280;64233;51.486;6.332;2023-04-25T04:08:30;100820.94;;;2.91;100.00
75640;BME280;64233;51.486;6.332;2023-04-25T04:10:57;100824.00;;;2.88;100.00
75640;BME280;64233;51.486;6.332;2023-04-25T04:13:22;100824.97;;;2.80;100.00
75640;BME280;64233;51.486;6.332;2023-04-25T04:15:48;100824.72;;;2.75;100.00
75640;BME280;64233;51.486;6.332;2023-04-25T04:18:13;100827.81;;;2.79;100.00
75640;BME280;64233;51.486;6.332;2023-04-25T04:20:38;100826.78;;;2.73;100.00
75640;BME280;64233;51.486;6.332;2023-04-25T04:23:04;100825.13;;;2.72;100.00
75640;BME280;64233;51.486;6.332;2023-04-25T04:25:30;100823.09;;;2.67;100.00
75640;BME280;64233;51.486;6.332;2023-04-25T04:27:55;100824.94;;;2.67;100.00
75640;BME280;64233;51.486;6.332;2023-04-25T04:30:22;100829.59;;;2.65;100.00
75640;BME280;64233;51.486;6.332;2023-04-25T04:32:49;100827.94;;;2.57;100.00
75640;BME280;64233;51.486;6.332;2023-04-25T04:35:14;100833.84;;;2.52;100.00
75640;BME280;64233;51.486;6.332;2023-04-25T04:37:40;100833.03;;;2.58;100.00
75640;BME280;64233;51.486;6.332;2023-04-25T04:40:05;100836.88;;;2.56;100.00
75640;BME280;64233;51.486;6.332;2023-04-25T04:42:32;100838.94;;;2.54;100.00
75640;BME280;64233;51.486;6.332;2023-04-25T04:44:57;100838.28;;;2.52;100.00
75640;BME280;64233;51.486;6.332;2023-04-25T04:47:23;100848.91;;;2.52;100.00
75640;BME280;64233;51.486;6.332;2023-04-25T04:49:49;100842.19;;;2.56;100.00
75640;BME280;64233;51.486;6.332;2023-04-25T04:52:14;100837.16;;;2.68;100.00
75640;BME280;64233;51.486;6.332;2023-04-25T04:54:39;100837.19;;;2.74;100.00
75640;BME280;64233;51.486;6.332;2023-04-25T04:57:05;100851.47;;;2.80;100.00
75640;BME280;64233;51.486;6.332;2023-04-25T04:59:30;100852.56;;;2.92;100.00
75640;BME280;64233;51.486;6.332;2023-04-25T05:01:55;100856.06;;;3.00;100.00
75640;BME280;64233;51.486;6.332;2023-04-25T05:04:20;100855.44;;;3.04;100.00
75640;BME280;64233;51.486;6.332;2023-04-25T05:06:46;100857.31;;;3.10;100.00
75640;BME280;64233;51.486;6.332;2023-04-25T05:09:11;100863.25;;;3.19;100.00
75640;BME280;64233;51.486;6.332;2023-04-25T05:11:36;100871.63;;;3.23;100.00
75640;BME280;64233;51.486;6.332;2023-04-25T05:14:01;100872.47;;;3.30;100.00
75640;BME280;64233;51.486;6.332;2023-04-25T05:16:27;100876.34;;;3.34;100.00
75640;BME280;64233;51.486;6.332;2023-04-25T05:18:52;100883.94;;;3.44;100.00
75640;BME280;64233;51.486;6.332;2023-04-25T05:21:17;100882.13;;;3.44;100.00
75640;BME280;64233;51.486;6.332;2023-04-25T05:23:43;100891.09;;;3.50;100.00
75640;BME280;64233;51.486;6.332;2023-04-25T05:26:08;100887.63;;;3.50;100.00
75640;BME280;64233;51.486;6.332;2023-04-25T05:28:39;100905.16;;;3.44;100.00
75640;BME280;64233;51.486;6.332;2023-04-25T05:31:04;100905.78;;;3.46;100.00
75640;BME280;64233;51.486;6.332;2023-04-25T05:33:30;100905.59;;;3.48;100.00
75640;BME280;64233;51.486;6.332;2023-04-25T05:35:55;100904.34;;;3.43;100.00
75640;BME280;64233;51.486;6.332;2023-04-25T05:38:20;100912.72;;;3.40;100.00
75640;BME280;64233;51.486;6.332;2023-04-25T05:40:45;100909.22;;;3.40;100.00
75640;BME280;64233;51.486;6.332;2023-04-25T05:43:11;100919.84;;;3.40;100.00
75640;BME280;64233;51.486;6.332;2023-04-25T05:45:36;100923.09;;;3.35;100.00
75640;BME280;64233;51.486;6.332;2023-04-25T05:48:02;100912.25;;;3.30;100.00
75640;BME280;64233;51.486;6.332;2023-04-25T05:50:28;100914.31;;;3.28;100.00
75640;BME280;64233;51.486;6.332;2023-04-25T05:52:53;100926.75;;;3.27;100.00
75640;BME280;64233;51.486;6.332;2023-04-25T05:55:18;100924.91;;;3.28;100.00
75640;BME280;64233;51.486;6.332;2023-04-25T05:57:43;100935.56;;;3.35;100.00
75640;BME280;64233;51.486;6.332;2023-04-25T06:00:11;100936.63;;;3.54;100.00
75640;BME280;64233;51.486;6.332;2023-04-25T06:02:37;100936.06;;;3.72;100.00
75640;BME280;64233;51.486;6.332;2023-04-25T06:05:02;100934.47;;;3.84;100.00
75640;BME280;64233;51.486;6.332;2023-04-25T06:07:28;100939.56;;;3.92;100.00
75640;BME280;64233;51.486;6.332;2023-04-25T06:09:55;100938.56;;;4.07;100.00
75640;BME280;64233;51.486;6.332;2023-04-25T06:12:20;100951.66;;;4.22;100.00
75640;BME280;64233;51.486;6.332;2023-04-25T06:14:45;100935.09;;;4.33;100.00
75640;BME280;64233;51.486;6.332;2023-04-25T06:17:10;100946.94;;;4.44;100.00
75640;BME280;64233;51.486;6.332;2023-04-25T06:19:36;100953.88;;;4.52;100.00
75640;BME280;64233;51.486;6.332;2023-04-25T06:22:02;100955.09;;;4.62;100.00
75640;BME280;64233;51.486;6.332;2023-04-25T06:24:27;100951.19;;;4.72;100.00
75640;BME280;64233;51.486;6.332;2023-04-25T06:26:53;100958.75;;;4.88;100.00
75640;BME280;64233;51.486;6.332;2023-04-25T06:29:18;100953.00;;;4.98;100.00
75640;BME280;64233;51.486;6.332;2023-04-25T06:31:43;100964.84;;;5.02;100.00
75640;BME280;64233;51.486;6.332;2023-04-25T06:34:08;100958.66;;;5.15;100.00
75640;BME280;64233;51.486;6.332;2023-04-25T06:36:34;100965.09;;;5.46;100.00
75640;BME280;64233;51.486;6.332;2023-04-25T06:38:59;100958.28;;;5.50;100.00
75640;BME280;64233;51.486;6.332;2023-04-25T06:41:24;100963.28;;;5.33;100.00
75640;BME280;64233;51.486;6.332;2023-04-25T06:43:50;100968.03;;;5.24;100.00
75640;BME280;64233;51.486;6.332;2023-04-25T06:46:15;100968.03;;;5.31;100.00
75640;BME280;64233;51.486;6.332;2023-04-25T06:48:40;100971.09;;;5.28;100.00
75640;BME280;64233;51.486;6.332;2023-04-25T06:51:06;100965.47;;;5.49;100.00
75640;BME280;64233;51.486;6.332;2023-04-25T06:53:31;100964.91;;;5.79;100.00
75640;BME280;64233;51.486;6.332;2023-04-25T06:55:56;100978.88;;;5.75;100.00
75640;BME280;64233;51.486;6.332;2023-04-25T06:58:22;100984.63;;;5.72;100.00
75640;BME280;64233;51.486;6.332;2023-04-25T07:00:47;100985.88;;;5.69;100.00
75640;BME280;64233;51.486;6.332;2023-04-25T07:03:12;100986.44;;;5.78;100.00
75640;BME280;64233;51.486;6.332;2023-04-25T07:05:38;100985.06;;;5.68;100.00
75640;BME280;64233;51.486;6.332;2023-04-25T07:08:03;100984.72;;;5.90;100.00
75640;BME280;64233;51.486;6.332;2023-04-25T07:10:29;100986.75;;;6.01;100.00
75640;BME280;64233;51.486;6.332;2023-04-25T07:12:54;100995.53;;;6.02;100.00
75640;BME280;64233;51.486;6.332;2023-04-25T07:15:19;100986.56;;;5.90;100.00
75640;BME280;64233;51.486;6.332;2023-04-25T07:17:45;100999.19;;;6.08;100.00
75640;BME280;64233;51.486;6.332;2023-04-25T07:20:10;100997.53;;;6.13;100.00
75640;BME280;64233;51.486;6.332;2023-04-25T07:22:35;101000.25;;;6.32;100.00
75640;BME280;64233;51.486;6.332;2023-04-25T07:25:01;101010.81;;;6.20;100.00
75640;BME280;64233;51.486;6.332;2023-04-25T07:27:26;101005.03;;;5.91;100.00
75640;BME280;64233;51.486;6.332;2023-04-25T07:29:52;101003.25;;;6.17;100.00
75640;BME280;64233;51.486;6.332;2023-04-25T07:32:18;101018.16;;;6.25;100.00
75640;BME280;64233;51.486;6.332;2023-04-25T07:34:43;101010.00;;;6.19;100.00
75640;BME280;64233;51.486;6.332;2023-04-25T07:37:08;101016.63;;;6.10;100.00
75640;BME280;64233;51.486;6.332;2023-04-25T07:39:33;101018.84;;;6.13;100.00
75640;BME280;64233;51.486;6.332;2023-04-25T07:41:59;101024.47;;;5.92;100.00
75640;BME280;64233;51.486;6.332;2023-04-25T07:44:25;101025.94;;;5.88;100.00
75640;BME280;64233;51.486;6.332;2023-04-25T07:46:51;101031.63;;;6.05;100.00
75640;BME280;64233;51.486;6.332;2023-04-25T07:49:16;101028.94;;;6.05;100.00
75640;BME280;64233;51.486;6.332;2023-04-25T07:51:41;101032.00;;;6.40;100.00
75640;BME280;64233;51.486;6.332;2023-04-25T07:54:09;101031.69;;;6.23;100.00
75640;BME280;64233;51.486;6.332;2023-04-25T07:56:34;101030.75;;;6.11;100.00
75640;BME280;64233;51.486;6.332;2023-04-25T07:59:00;101037.28;;;6.15;100.00
75640;BME280;64233;51.486;6.332;2023-04-25T08:01:25;101040.94;;;6.20;100.00
75640;BME280;64233;51.486;6.332;2023-04-25T08:03:52;101043.56;;;6.59;100.00
75640;BME280;64233;51.486;6.332;2023-04-25T08:06:17;101034.88;;;6.38;100.00
75640;BME280;64233;51.486;6.332;2023-04-25T08:08:42;101052.81;;;6.57;100.00
75640;BME280;64233;51.486;6.332;2023-04-25T08:11:08;101052.81;;;6.57;100.00
75640;BME280;64233;51.486;6.332;2023-04-25T08:13:33;101052.91;;;6.68;100.00
75640;BME280;64233;51.486;6.332;2023-04-25T08:15:58;101060.41;;;6.78;100.00
75640;BME280;64233;51.486;6.332;2023-04-25T08:18:23;101062.56;;;6.69;100.00
75640;BME280;64233;51.486;6.332;2023-04-25T08:20:49;101071.69;;;6.55;100.00
75640;BME280;64233;51.486;6.332;2023-04-25T08:23:14;101066.03;;;6.70;100.00
75640;BME280;64233;51.486;6.332;2023-04-25T08:25:40;101071.22;;;7.09;100.00
75640;BME280;64233;51.486;6.332;2023-04-25T08:28:05;101075.00;;;7.01;100.00
75640;BME280;64233;51.486;6.332;2023-04-25T08:30:31;101081.75;;;7.03;100.00
75640;BME280;64233;51.486;6.332;2023-04-25T08:32:56;101079.13;;;6.97;100.00
75640;BME280;64233;51.486;6.332;2023-04-25T08:35:21;101082.06;;;6.63;100.00
75640;BME280;64233;51.486;6.332;2023-04-25T08:37:47;101088.75;;;6.79;100.00
75640;BME280;64233;51.486;6.332;2023-04-25T08:40:15;101093.41;;;6.84;100.00
75640;BME280;64233;51.486;6.332;2023-04-25T08:42:42;101101.09;;;6.74;100.00
75640;BME280;64233;51.486;6.332;2023-04-25T08:45:08;101094.56;;;6.69;100.00
75640;BME280;64233;51.486;6.332;2023-04-25T08:47:34;101105.78;;;6.78;100.00
75640;BME280;64233;51.486;6.332;2023-04-25T08:50:02;101112.19;;;6.96;100.00
75640;BME280;64233;51.486;6.332;2023-04-25T08:52:30;101108.06;;;6.75;100.00
75640;BME280;64233;51.486;6.332;2023-04-25T08:54:58;101098.97;;;6.82;100.00
75640;BME280;64233;51.486;6.332;2023-04-25T08:57:25;101098.25;;;6.68;100.00
75640;BME280;64233;51.486;6.332;2023-04-25T08:59:52;101108.44;;;6.78;100.00
75640;BME280;64233;51.486;6.332;2023-04-25T09:02:18;101115.09;;;6.94;100.00
75640;BME280;64233;51.486;6.332;2023-04-25T09:04:45;101118.41;;;6.89;100.00
75640;BME280;64233;51.486;6.332;2023-04-25T09:07:11;101131.25;;;6.74;100.00
75640;BME280;64233;51.486;6.332;2023-04-25T09:09:37;101139.16;;;6.87;100.00
75640;BME280;64233;51.486;6.332;2023-04-25T09:12:02;101134.63;;;6.63;100.00
75640;BME280;64233;51.486;6.332;2023-04-25T09:14:27;101142.91;;;6.80;100.00
75640;BME280;64233;51.486;6.332;2023-04-25T09:19:26;101140.50;;;6.71;100.00
75640;BME280;64233;51.486;6.332;2023-04-25T09:21:56;101144.34;;;6.82;100.00
75640;BME280;64233;51.486;6.332;2023-04-25T09:24:41;101148.97;;;6.94;100.00
75640;BME280;64233;51.486;6.332;2023-04-25T09:27:10;101153.97;;;7.34;100.00
75640;BME280;64233;51.486;6.332;2023-04-25T09:29:37;101149.66;;;7.33;100.00
75640;BME280;64233;51.486;6.332;2023-04-25T09:32:18;101155.34;;;7.18;100.00
75640;BME280;64233;51.486;6.332;2023-04-25T09:34:47;101165.28;;;7.11;100.00
75640;BME280;64233;51.486;6.332;2023-04-25T09:37:23;101162.91;;;7.65;100.00
75640;BME280;64233;51.486;6.332;2023-04-25T09:39:51;101163.25;;;7.50;100.00
75640;BME280;64233;51.486;6.332;2023-04-25T09:42:17;101156.41;;;7.35;100.00
75640;BME280;64233;51.486;6.332;2023-04-25T09:44:46;101157.13;;;7.24;100.00
75640;BME280;64233;51.486;6.332;2023-04-25T09:47:13;101169.63;;;7.05;100.00
75640;BME280;64233;51.486;6.332;2023-04-25T09:49:41;101174.69;;;6.88;100.00
75640;BME280;64233;51.486;6.332;2023-04-25T09:52:14;101172.25;;;6.80;100.00
75640;BME280;64233;51.486;6.332;2023-04-25T09:54:40;101177.78;;;6.85;100.00
75640;BME280;64233;51.486;6.332;2023-04-25T09:57:23;101177.13;;;6.89;100.00
75640;BME280;64233;51.486;6.332;2023-04-25T09:59:53;101178.47;;;6.99;100.00
75640;BME280;64233;51.486;6.332;2023-04-25T10:02:22;101185.09;;;7.21;100.00
75640;BME280;64233;51.486;6.332;2023-04-25T10:04:51;101183.47;;;7.46;100.00
75640;BME280;64233;51.486;6.332;2023-04-25T10:07:18;101181.69;;;7.58;100.00
75640;BME280;64233;51.486;6.332;2023-04-25T10:09:48;101180.66;;;7.78;100.00
75640;BME280;64233;51.486;6.332;2023-04-25T10:12:16;101182.75;;;7.94;100.00
75640;BME280;64233;51.486;6.332;2023-04-25T10:14:42;101185.44;;;7.94;100.00
75640;BME280;64233;51.486;6.332;2023-04-25T10:17:09;101183.72;;;7.81;100.00
75640;BME280;64233;51.486;6.332;2023-04-25T10:19:35;101190.81;;;7.50;100.00
75640;BME280;64233;51.486;6.332;2023-04-25T10:22:11;101188.03;;;7.38;100.00
75640;BME280;64233;51.486;6.332;2023-04-25T10:24:39;101190.53;;;7.33;100.00
75640;BME280;64233;51.486;6.332;2023-04-25T10:27:05;101184.44;;;7.51;100.00
75640;BME280;64233;51.486;6.332;2023-04-25T10:29:31;101189.06;;;7.81;100.00
75640;BME280;64233;51.486;6.332;2023-04-25T10:31:57;101197.44;;;7.85;100.00
75640;BME280;64233;51.486;6.332;2023-04-25T10:34:39;101184.75;;;7.80;100.00
75640;BME280;64233;51.486;6.332;2023-04-25T10:37:05;101185.25;;;8.07;100.00
75640;BME280;64233;51.486;6.332;2023-04-25T10:39:33;101185.41;;;8.13;100.00
75640;BME280;64233;51.486;6.332;2023-04-25T10:42:01;101186.84;;;8.15;100.00
75640;BME280;64233;51.486;6.332;2023-04-25T10:44:30;101184.41;;;8.44;100.00
75640;BME280;64233;51.486;6.332;2023-04-25T10:46:57;101188.28;;;8.48;100.00
75640;BME280;64233;51.486;6.332;2023-04-25T10:49:42;101183.19;;;8.28;100.00
75640;BME280;64233;51.486;6.332;2023-04-25T10:57:42;101185.31;;;8.56;100.00
75640;BME280;64233;51.486;6.332;2023-04-25T11:00:15;101188.47;;;9.07;100.00
75640;BME280;64233;51.486;6.332;2023-04-25T11:02:43;101193.66;;;8.30;100.00
75640;BME280;64233;51.486;6.332;2023-04-25T11:05:10;101187.25;;;8.12;100.00
75640;BME280;64233;51.486;6.332;2023-04-25T11:07:53;101185.84;;;8.28;100.00
75640;BME280;64233;51.486;6.332;2023-04-25T11:10:29;101199.00;;;8.30;100.00
75640;BME280;64233;51.486;6.332;2023-04-25T11:12:55;101192.69;;;8.24;100.00
75640;BME280;64233;51.486;6.332;2023-04-25T11:15:21;101195.72;;;8.09;100.00
75640;BME280;64233;51.486;6.332;2023-04-25T11:17:46;101208.00;;;7.80;100.00
75640;BME280;64233;51.486;6.332;2023-04-25T11:20:12;101205.53;;;7.97;100.00
75640;BME280;64233;51.486;6.332;2023-04-25T11:22:39;101203.06;;;8.51;100.00
75640;BME280;64233;51.486;6.332;2023-04-25T11:25:08;101210.69;;;9.20;100.00
75640;BME280;64233;51.486;6.332;2023-04-25T11:27:37;101214.06;;;8.73;100.00
75640;BME280;64233;51.486;6.332;2023-04-25T11:30:15;101213.31;;;8.54;100.00
75640;BME280;64233;51.486;6.332;2023-04-25T11:32:41;101212.28;;;7.81;100.00
75640;BME280;64233;51.486;6.332;2023-04-25T11:35:08;101220.06;;;7.38;100.00
75640;BME280;64233;51.486;6.332;2023-04-25T11:37:34;101211.56;;;7.48;100.00
75640;BME280;64233;51.486;6.332;2023-04-25T11:40:00;101214.63;;;7.52;100.00
75640;BME280;64233;51.486;6.332;2023-04-25T11:42:25;101221.28;;;7.43;100.00
75640;BME280;64233;51.486;6.332;2023-04-25T11:44:51;101220.41;;;7.23;100.00
75640;BME280;64233;51.486;6.332;2023-04-25T11:47:17;101214.53;;;7.15;100.00
75640;BME280;64233;51.486;6.332;2023-04-25T11:49:42;101214.25;;;7.23;100.00
75640;BME280;64233;51.486;6.332;2023-04-25T11:52:07;101221.03;;;7.44;100.00
75640;BME280;64233;51.486;6.332;2023-04-25T11:54:35;101208.84;;;7.55;100.00
75640;BME280;64233;51.486;6.332;2023-04-25T11:57:01;101220.91;;;7.64;100.00
75640;BME280;64233;51.486;6.332;2023-04-25T11:59:26;101216.06;;;7.73;100.00
75640;BME280;64233;51.486;6.332;2023-04-25T12:01:52;101222.31;;;7.41;100.00
75640;BME280;64233;51.486;6.332;2023-04-25T12:04:20;101221.22;;;7.49;100.00
75640;BME280;64233;51.486;6.332;2023-04-25T12:06:46;101226.47;;;7.63;100.00
75640;BME280;64233;51.486;6.332;2023-04-25T12:09:13;101226.38;;;7.69;100.00
75640;BME280;64233;51.486;6.332;2023-04-25T12:11:43;101226.28;;;7.57;100.00
75640;BME280;64233;51.486;6.332;2023-04-25T12:14:09;101231.44;;;7.78;100.00
75640;BME280;64233;51.486;6.332;2023-04-25T12:16:44;101239.47;;;7.96;100.00
75640;BME280;64233;51.486;6.332;2023-04-25T12:19:13;101230.03;;;8.31;100.00
75640;BME280;64233;51.486;6.332;2023-04-25T12:21:39;101229.69;;;8.27;100.00
75640;BME280;64233;51.486;6.332;2023-04-25T12:27:06;101245.81;;;9.00;100.00
75640;BME280;64233;51.486;6.332;2023-04-25T12:29:33;101233.41;;;8.75;100.00
75640;BME280;64233;51.486;6.332;2023-04-25T12:31:59;101229.56;;;8.71;100.00
75640;BME280;64233;51.486;6.332;2023-04-25T12:34:27;101245.09;;;8.92;100.00
75640;BME280;64233;51.486;6.332;2023-04-25T12:36:52;101232.59;;;8.74;100.00
75640;BME280;64233;51.486;6.332;2023-04-25T12:39:20;101231.88;;;8.67;100.00
75640;BME280;64233;51.486;6.332;2023-04-25T12:41:47;101237.38;;;8.72;100.00
75640;BME280;64233;51.486;6.332;2023-04-25T12:44:13;101240.59;;;8.44;100.00
75640;BME280;64233;51.486;6.332;2023-04-25T12:46:39;101238.75;;;8.07;100.00
75640;BME280;64233;51.486;6.332;2023-04-25T12:49:05;101246.53;;;8.09;100.00
75640;BME280;64233;51.486;6.332;2023-04-25T12:51:33;101242.00;;;7.91;100.00
75640;BME280;64233;51.486;6.332;2023-04-25T12:53:59;101237.78;;;8.02;100.00
75640;BME280;64233;51.486;6.332;2023-04-25T12:56:26;101246.00;;;8.19;100.00